createdAt,value
2019-03-21T00:01:19.286Z,2.80
2019-03-21T00:03:50.228Z,2.80
2019-03-21T00:06:19.878Z,2.80
2019-03-21T00:08:49.501Z,2.80
2019-03-21T00:11:54.597Z,2.80
2019-03-21T00:14:54.551Z,2.80
2019-03-21T00:17:26.983Z,2.80
2019-03-21T00:19:57.569Z,2.70
2019-03-21T00:22:28.062Z,2.70
2019-03-21T00:24:57.413Z,2.60
2019-03-21T00:27:26.873Z,2.60
2019-03-21T00:29:56.257Z,2.50
2019-03-21T00:32:25.620Z,2.50
2019-03-21T00:34:55.018Z,2.50
2019-03-21T00:37:24.448Z,2.50
2019-03-21T00:39:53.849Z,2.40
2019-03-21T00:42:23.357Z,2.40
2019-03-21T00:44:52.705Z,2.40
2019-03-21T00:47:22.083Z,2.40
2019-03-21T00:49:51.826Z,2.40
2019-03-21T00:52:21.236Z,2.40
2019-03-21T00:54:50.955Z,2.30
2019-03-21T00:57:20.642Z,2.30
2019-03-21T00:59:50.008Z,2.30
2019-03-21T01:02:19.484Z,2.30
2019-03-21T01:04:48.845Z,2.30
2019-03-21T01:07:18.185Z,2.30
2019-03-21T01:09:47.630Z,2.20
2019-03-21T01:12:17.248Z,2.20
2019-03-21T01:14:46.689Z,2.20
2019-03-21T01:17:16.037Z,2.20
2019-03-21T01:19:45.633Z,2.10
2019-03-21T01:22:14.983Z,2.20
2019-03-21T01:24:44.380Z,2.10
2019-03-21T01:27:13.758Z,2.10
2019-03-21T01:29:43.136Z,2.10
2019-03-21T01:32:12.492Z,2.00
2019-03-21T01:34:41.846Z,2.10
2019-03-21T01:37:11.197Z,2.00
2019-03-21T01:39:40.565Z,2.00
2019-03-21T01:42:09.914Z,2.10
2019-03-21T01:44:41.269Z,2.10
2019-03-21T01:47:10.896Z,2.00
2019-03-21T01:49:40.527Z,2.00
2019-03-21T01:52:09.877Z,2.00
2019-03-21T01:54:39.210Z,2.00
2019-03-21T01:57:08.577Z,2.00
2019-03-21T01:59:37.932Z,2.00
2019-03-21T02:02:07.335Z,1.90
2019-03-21T02:04:36.690Z,1.80
2019-03-21T02:07:06.152Z,1.90
2019-03-21T02:09:35.506Z,1.90
2019-03-21T02:12:05.540Z,1.90
2019-03-21T02:14:35.153Z,1.90
2019-03-21T02:17:05.084Z,2.00
2019-03-21T02:19:34.437Z,2.00
2019-03-21T02:22:03.889Z,2.20
2019-03-21T02:24:33.237Z,2.10
2019-03-21T02:27:02.606Z,2.20
2019-03-21T02:29:32.325Z,2.20
2019-03-21T02:32:01.739Z,2.20
2019-03-21T02:34:31.161Z,2.20
2019-03-21T02:37:00.698Z,2.20
2019-03-21T02:39:30.068Z,2.20
2019-03-21T02:41:59.696Z,2.30
2019-03-21T02:44:29.042Z,2.20
2019-03-21T02:46:58.392Z,2.10
2019-03-21T02:49:27.749Z,2.10
2019-03-21T02:51:57.257Z,2.00
2019-03-21T02:54:26.623Z,2.00
2019-03-21T02:56:56.045Z,2.10
2019-03-21T02:59:25.400Z,2.10
2019-03-21T03:01:55.493Z,2.00
2019-03-21T03:04:24.839Z,2.00
2019-03-21T03:06:54.198Z,2.00
2019-03-21T03:09:23.782Z,2.00
2019-03-21T03:11:53.305Z,2.10
2019-03-21T03:14:22.679Z,2.10
2019-03-21T03:16:52.156Z,2.10
2019-03-21T03:19:21.614Z,2.10
2019-03-21T03:21:51.054Z,2.10
2019-03-21T03:24:22.788Z,2.00
2019-03-21T03:26:52.166Z,2.00
2019-03-21T03:29:21.811Z,2.00
2019-03-21T03:31:51.243Z,2.00
2019-03-21T03:34:20.914Z,1.90
2019-03-21T03:36:50.740Z,1.80
2019-03-21T03:39:20.155Z,1.80
2019-03-21T03:41:49.979Z,1.80
2019-03-21T03:44:19.657Z,1.80
2019-03-21T03:46:49.074Z,1.60
2019-03-21T03:49:18.540Z,1.70
2019-03-21T03:51:48.132Z,1.70
2019-03-21T03:54:17.552Z,1.80
2019-03-21T03:56:47.387Z,1.70
2019-03-21T03:59:16.905Z,1.70
2019-03-21T04:01:46.422Z,1.70
2019-03-21T04:04:16.021Z,1.80
2019-03-21T04:06:45.467Z,1.70
2019-03-21T04:09:14.837Z,1.70
2019-03-21T04:11:44.741Z,1.60
2019-03-21T04:14:14.422Z,1.70
2019-03-21T04:16:43.782Z,1.60
2019-03-21T04:19:13.250Z,1.60
2019-03-21T04:21:43.896Z,1.60
2019-03-21T04:24:13.440Z,1.60
2019-03-21T04:26:42.810Z,1.50
2019-03-21T04:29:12.189Z,1.50
2019-03-21T04:31:41.574Z,1.50
2019-03-21T04:34:11.070Z,1.50
2019-03-21T04:36:40.922Z,1.50
2019-03-21T04:39:11.330Z,1.40
2019-03-21T04:41:41.654Z,1.30
2019-03-21T04:44:11.125Z,1.30
2019-03-21T04:46:40.486Z,1.30
2019-03-21T04:49:09.851Z,1.30
2019-03-21T04:51:39.209Z,1.30
2019-03-21T04:54:08.603Z,1.20
2019-03-21T04:56:38.079Z,1.30
2019-03-21T04:59:07.520Z,1.20
2019-03-21T05:01:36.957Z,1.20
2019-03-21T05:04:07.071Z,1.20
2019-03-21T05:06:36.439Z,1.30
2019-03-21T05:09:08.946Z,1.20
2019-03-21T05:11:38.636Z,1.10
2019-03-21T05:14:08.082Z,1.10
2019-03-21T05:16:37.908Z,1.20
2019-03-21T05:19:07.287Z,1.20
2019-03-21T05:21:36.717Z,1.20
2019-03-21T05:24:06.246Z,1.30
2019-03-21T05:26:35.626Z,1.20
2019-03-21T05:29:05.362Z,1.20
2019-03-21T05:31:35.334Z,1.10
2019-03-21T05:34:04.863Z,1.10
2019-03-21T05:36:34.545Z,1.10
2019-03-21T05:39:06.271Z,1.20
2019-03-21T05:41:35.704Z,1.30
2019-03-21T05:44:16.430Z,1.20
2019-03-21T05:46:46.037Z,1.20
2019-03-21T05:49:15.393Z,1.20
2019-03-21T05:51:44.820Z,1.20
2019-03-21T05:54:14.210Z,1.20
2019-03-21T05:56:43.682Z,1.30
2019-03-21T05:59:13.057Z,1.30
2019-03-21T06:01:42.604Z,1.30
2019-03-21T06:04:12.089Z,1.30
2019-03-21T06:06:57.646Z,1.40
2019-03-21T06:09:27.029Z,1.40
2019-03-21T06:11:58.084Z,1.50
2019-03-21T06:14:28.209Z,1.60
2019-03-21T06:16:57.635Z,1.70
2019-03-21T06:20:20.184Z,1.80
2019-03-21T06:23:06.194Z,1.80
2019-03-21T06:25:55.035Z,2.00
2019-03-21T06:28:24.417Z,2.10
2019-03-21T06:30:54.102Z,2.30
2019-03-21T06:33:23.487Z,2.30
2019-03-21T06:35:52.958Z,2.40
2019-03-21T06:38:22.341Z,2.40
2019-03-21T06:40:51.722Z,2.50
2019-03-21T06:43:21.523Z,2.60
2019-03-21T06:45:51.831Z,3.30
2019-03-21T06:48:21.306Z,3.60
2019-03-21T06:50:50.794Z,4.10
2019-03-21T06:53:20.193Z,4.10
2019-03-21T06:55:49.807Z,4.10
2019-03-21T06:58:19.465Z,4.30
2019-03-21T07:00:49.066Z,4.10
2019-03-21T07:03:18.711Z,3.90
2019-03-21T07:05:49.362Z,3.90
2019-03-21T07:08:18.827Z,3.90
2019-03-21T07:10:48.201Z,3.90
2019-03-21T07:13:18.122Z,3.90
2019-03-21T07:15:47.567Z,4.00
2019-03-21T07:18:17.245Z,4.10
2019-03-21T07:20:46.608Z,4.30
2019-03-21T07:23:16.553Z,4.40
2019-03-21T07:25:45.991Z,4.60
2019-03-21T07:28:15.522Z,4.80
2019-03-21T07:30:44.985Z,4.90
2019-03-21T07:33:14.438Z,5.10
2019-03-21T07:35:43.981Z,5.40
2019-03-21T07:38:13.341Z,5.50
2019-03-21T07:40:42.766Z,5.80
2019-03-21T07:43:12.153Z,5.80
2019-03-21T07:45:42.108Z,5.90
2019-03-21T07:48:11.479Z,6.00
2019-03-21T07:50:40.916Z,6.10
2019-03-21T07:53:10.487Z,6.20
2019-03-21T07:55:39.932Z,6.30
2019-03-21T07:58:09.497Z,6.50
2019-03-21T08:00:39.293Z,6.70
2019-03-21T08:03:08.817Z,6.80
2019-03-21T08:05:40.613Z,7.00
2019-03-21T08:08:09.374Z,7.20
2019-03-21T08:10:38.863Z,7.30
2019-03-21T08:13:08.305Z,7.50
2019-03-21T08:15:38.126Z,7.70
2019-03-21T08:18:07.662Z,7.80
2019-03-21T08:20:37.116Z,7.90
2019-03-21T08:23:06.554Z,8.10
2019-03-21T08:25:36.205Z,8.10
2019-03-21T08:28:05.784Z,8.20
2019-03-21T08:30:35.886Z,8.40
2019-03-21T08:33:05.732Z,8.50
2019-03-21T08:35:35.271Z,8.60
2019-03-21T08:38:04.805Z,8.70
2019-03-21T08:40:34.248Z,8.80
2019-03-21T08:43:03.677Z,8.90
2019-03-21T08:45:33.173Z,9.10
2019-03-21T08:48:02.608Z,9.30
2019-03-21T08:50:33.301Z,9.40
2019-03-21T08:53:02.811Z,9.50
2019-03-21T08:55:32.355Z,9.70
2019-03-21T08:58:01.816Z,9.70
2019-03-21T09:00:34.404Z,9.70
2019-03-21T09:03:02.404Z,9.90
2019-03-21T09:05:31.840Z,10.00
2019-03-21T09:08:01.281Z,10.30
2019-03-21T09:10:30.704Z,10.50
2019-03-21T09:13:00.088Z,10.50
2019-03-21T09:15:29.865Z,10.70
2019-03-21T09:18:00.651Z,10.80
2019-03-21T09:20:30.062Z,10.90
2019-03-21T09:22:59.675Z,11.00
2019-03-21T09:25:29.117Z,11.10
2019-03-21T09:28:02.816Z,11.10
2019-03-21T09:30:29.697Z,11.20
2019-03-21T09:32:59.229Z,11.20
2019-03-21T09:35:28.699Z,11.20
2019-03-21T09:37:58.085Z,11.50
2019-03-21T09:40:27.478Z,11.50
2019-03-21T09:42:57.354Z,11.50
2019-03-21T09:45:26.801Z,11.70
2019-03-21T09:47:56.588Z,11.90
2019-03-21T09:50:28.320Z,12.10
2019-03-21T09:52:57.870Z,12.40
2019-03-21T09:55:27.294Z,12.50
2019-03-21T09:57:56.751Z,12.80
2019-03-21T10:00:34.002Z,13.00
2019-03-21T10:03:03.960Z,13.00
2019-03-21T10:05:33.392Z,12.90
2019-03-21T10:08:03.075Z,12.70
2019-03-21T10:10:32.844Z,12.90
2019-03-21T10:13:02.466Z,13.20
2019-03-21T10:15:32.301Z,13.50
2019-03-21T10:18:01.745Z,13.70
2019-03-21T10:20:31.103Z,13.70
2019-03-21T10:23:00.509Z,13.70
2019-03-21T10:25:29.957Z,13.50
2019-03-21T10:27:59.729Z,13.90
2019-03-21T10:30:37.110Z,14.10
2019-03-21T10:33:07.659Z,14.30
2019-03-21T10:35:37.177Z,14.40
2019-03-21T10:38:07.382Z,14.30
2019-03-21T10:40:36.925Z,14.40
2019-03-21T10:43:06.667Z,14.60
2019-03-21T10:45:36.607Z,15.00
2019-03-21T10:48:06.649Z,15.10
2019-03-21T10:50:37.537Z,15.30
2019-03-21T10:53:07.589Z,15.60
2019-03-21T10:55:37.336Z,15.70
2019-03-21T10:58:07.817Z,15.70
2019-03-21T11:00:38.317Z,15.70
2019-03-21T11:03:08.740Z,15.50
2019-03-21T11:05:38.367Z,15.80
2019-03-21T11:08:08.182Z,15.80
2019-03-21T11:10:37.812Z,15.70
2019-03-21T11:13:07.561Z,15.80
2019-03-21T11:15:37.096Z,16.30
2019-03-21T11:18:06.725Z,16.50
2019-03-21T11:20:38.077Z,16.50
2019-03-21T11:23:08.676Z,16.50
2019-03-21T11:25:38.209Z,16.90
2019-03-21T11:28:08.074Z,17.00
2019-03-21T11:30:42.472Z,16.70
2019-03-21T11:33:12.013Z,17.00
2019-03-21T11:35:41.529Z,16.80
2019-03-21T11:38:11.251Z,17.00
2019-03-21T11:40:40.760Z,17.40
2019-03-21T11:43:12.678Z,17.20
2019-03-21T11:45:42.287Z,17.40
2019-03-21T11:48:11.990Z,17.30
2019-03-21T11:50:41.505Z,17.40
2019-03-21T11:53:10.953Z,17.80
2019-03-21T11:55:40.641Z,17.80
2019-03-21T11:58:10.096Z,17.90
2019-03-21T12:00:43.729Z,17.90
2019-03-21T12:03:12.803Z,17.60
2019-03-21T12:05:42.466Z,17.70
2019-03-21T12:08:12.203Z,17.60
2019-03-21T12:10:41.621Z,17.80
2019-03-21T12:13:11.008Z,18.40
2019-03-21T12:15:40.378Z,18.30
2019-03-21T12:18:09.765Z,18.30
2019-03-21T12:20:39.305Z,18.30
2019-03-21T12:23:08.729Z,17.90
2019-03-21T12:25:38.445Z,18.10
2019-03-21T12:28:07.980Z,18.10
2019-03-21T12:30:46.597Z,18.50
2019-03-21T12:33:16.085Z,18.30
2019-03-21T12:35:45.623Z,18.30
2019-03-21T12:38:15.180Z,18.70
2019-03-21T12:40:44.881Z,19.40
2019-03-21T12:43:14.724Z,19.80
2019-03-21T12:45:44.929Z,19.50
2019-03-21T12:48:14.539Z,19.80
2019-03-21T12:50:44.184Z,20.00
2019-03-21T12:53:13.592Z,20.30
2019-03-21T12:55:42.953Z,20.40
2019-03-21T12:58:12.673Z,20.60
2019-03-21T13:00:43.394Z,20.70
2019-03-21T13:03:13.870Z,20.70
2019-03-21T13:05:43.743Z,20.80
2019-03-21T13:08:13.265Z,21.20
2019-03-21T13:10:42.800Z,20.90
2019-03-21T13:13:12.457Z,20.70
2019-03-21T13:15:41.920Z,20.90
2019-03-21T13:18:11.394Z,21.00
2019-03-21T13:20:40.964Z,21.10
2019-03-21T13:23:10.413Z,21.30
2019-03-21T13:25:40.016Z,21.30
2019-03-21T13:28:09.521Z,21.70
2019-03-21T13:30:39.297Z,21.60
2019-03-21T13:33:08.945Z,21.40
2019-03-21T13:35:38.596Z,21.10
2019-03-21T13:38:08.053Z,20.90
2019-03-21T13:40:37.494Z,20.80
2019-03-21T13:43:07.010Z,20.90
2019-03-21T13:45:36.450Z,21.20
2019-03-21T13:48:06.474Z,21.50
2019-03-21T13:50:36.024Z,21.50
2019-03-21T13:53:17.788Z,21.00
2019-03-21T13:55:36.929Z,21.60
2019-03-21T13:58:06.369Z,21.90
2019-03-21T14:00:35.891Z,22.00
2019-03-21T14:03:05.622Z,21.80
2019-03-21T14:05:35.345Z,21.70
2019-03-21T14:08:04.884Z,21.00
2019-03-21T14:10:34.325Z,20.50
2019-03-21T14:13:03.920Z,20.50
2019-03-21T14:15:33.318Z,20.70
2019-03-21T14:18:02.682Z,20.60
2019-03-21T14:20:32.405Z,20.10
2019-03-21T14:23:01.838Z,20.20
2019-03-21T14:25:31.665Z,20.60
2019-03-21T14:28:01.102Z,20.30
2019-03-21T14:30:30.654Z,20.70
2019-03-21T14:33:00.221Z,21.00
2019-03-21T14:35:29.590Z,21.40
2019-03-21T14:37:58.949Z,21.20
2019-03-21T14:40:28.958Z,21.20
2019-03-21T14:42:58.420Z,20.70
2019-03-21T14:45:28.888Z,20.70
2019-03-21T14:47:58.319Z,21.00
2019-03-21T14:50:49.880Z,20.90
2019-03-21T14:53:28.425Z,20.80
2019-03-21T14:55:50.407Z,20.70
2019-03-21T14:58:19.785Z,21.10
2019-03-21T15:00:49.272Z,20.70
2019-03-21T15:03:18.659Z,20.90
2019-03-21T15:05:48.168Z,20.70
2019-03-21T15:08:18.338Z,21.00
2019-03-21T15:10:47.794Z,21.00
2019-03-21T15:13:17.249Z,20.80
2019-03-21T15:15:46.680Z,20.90
2019-03-21T15:18:16.323Z,20.70
2019-03-21T15:20:45.711Z,20.40
2019-03-21T15:23:15.146Z,20.30
2019-03-21T15:25:44.712Z,20.00
2019-03-21T15:28:14.311Z,20.00
2019-03-21T15:30:43.946Z,19.40
2019-03-21T15:33:13.395Z,19.30
2019-03-21T15:35:42.841Z,18.90
2019-03-21T15:38:12.202Z,18.90
2019-03-21T15:40:41.660Z,18.90
2019-03-21T15:43:11.115Z,18.90
2019-03-21T15:45:40.662Z,19.00
2019-03-21T15:48:10.123Z,18.80
2019-03-21T15:50:39.497Z,18.60
2019-03-21T15:53:09.011Z,18.60
2019-03-21T15:55:38.993Z,18.40
2019-03-21T15:58:08.432Z,17.90
2019-03-21T16:00:42.512Z,17.50
2019-03-21T16:03:12.569Z,17.40
2019-03-21T16:05:42.242Z,17.40
2019-03-21T16:08:11.786Z,17.40
2019-03-21T16:10:42.892Z,17.30
2019-03-21T16:13:12.330Z,17.00
2019-03-21T16:15:41.743Z,17.20
2019-03-21T16:18:11.292Z,17.20
2019-03-21T16:20:40.757Z,17.30
2019-03-21T16:23:10.186Z,17.40
2019-03-21T16:25:39.625Z,17.40
2019-03-21T16:28:09.298Z,17.50
2019-03-21T16:30:38.740Z,17.50
2019-03-21T16:33:08.514Z,17.50
2019-03-21T16:35:37.962Z,17.40
2019-03-21T16:38:07.398Z,17.10
2019-03-21T16:40:36.853Z,17.00
2019-03-21T16:43:06.303Z,17.00
2019-03-21T16:45:35.817Z,16.80
2019-03-21T16:48:08.683Z,16.70
2019-03-21T16:50:37.014Z,16.60
2019-03-21T16:53:06.790Z,16.10
2019-03-21T16:55:36.510Z,15.80
2019-03-21T16:58:06.207Z,15.60
2019-03-21T17:00:36.545Z,15.40
2019-03-21T17:03:06.121Z,15.20
2019-03-21T17:05:35.787Z,15.00
2019-03-21T17:08:11.064Z,14.80
2019-03-21T17:10:36.644Z,14.60
2019-03-21T17:13:06.481Z,14.40
2019-03-21T17:15:36.776Z,14.20
2019-03-21T17:18:06.537Z,14.10
2019-03-21T17:20:36.068Z,13.90
2019-03-21T17:23:05.842Z,13.80
2019-03-21T17:25:35.304Z,13.70
2019-03-21T17:28:05.046Z,13.50
2019-03-21T17:30:34.520Z,13.40
2019-03-21T17:33:04.049Z,13.30
2019-03-21T17:35:33.708Z,13.20
2019-03-21T17:38:03.089Z,13.10
2019-03-21T17:40:32.518Z,12.90
2019-03-21T17:43:01.985Z,12.80
2019-03-21T17:45:31.488Z,12.60
2019-03-21T17:48:00.988Z,12.60
2019-03-21T17:50:30.717Z,12.60
2019-03-21T17:53:00.222Z,12.40
2019-03-21T17:55:30.001Z,12.30
2019-03-21T17:57:59.861Z,12.20
2019-03-21T18:00:30.605Z,12.00
2019-03-21T18:03:00.026Z,11.90
2019-03-21T18:05:29.555Z,11.70
2019-03-21T18:07:59.122Z,11.60
2019-03-21T18:10:32.620Z,11.40
2019-03-21T18:13:02.652Z,11.30
2019-03-21T18:15:32.165Z,11.20
2019-03-21T18:18:03.166Z,11.10
2019-03-21T18:20:32.797Z,11.00
2019-03-21T18:23:02.896Z,11.00
2019-03-21T18:25:32.697Z,10.90
2019-03-21T18:28:02.204Z,10.80
2019-03-21T18:30:31.633Z,10.60
2019-03-21T18:33:01.121Z,10.60
2019-03-21T18:35:30.677Z,10.50
2019-03-21T18:38:00.118Z,10.40
2019-03-21T18:40:30.137Z,10.30
2019-03-21T18:42:59.617Z,10.20
2019-03-21T18:45:29.141Z,10.10
2019-03-21T18:47:58.534Z,9.80
2019-03-21T18:50:28.441Z,9.70
2019-03-21T18:52:57.876Z,9.60
2019-03-21T18:55:27.320Z,9.50
2019-03-21T18:57:57.037Z,9.40
2019-03-21T19:00:26.410Z,9.40
2019-03-21T19:02:55.867Z,9.30
2019-03-21T19:05:25.305Z,9.30
2019-03-21T19:07:54.794Z,9.30
2019-03-21T19:10:24.764Z,9.20
2019-03-21T19:12:54.137Z,9.20
2019-03-21T19:15:23.680Z,9.00
2019-03-21T19:17:53.229Z,8.90
2019-03-21T19:20:22.758Z,8.90
2019-03-21T19:22:52.915Z,8.80
2019-03-21T19:25:22.673Z,8.80
2019-03-21T19:27:52.101Z,8.70
2019-03-21T19:30:21.747Z,8.50
2019-03-21T19:32:51.280Z,8.50
2019-03-21T19:35:20.861Z,8.40
2019-03-21T19:37:50.290Z,8.40
2019-03-21T19:40:19.869Z,8.30
2019-03-21T19:42:49.385Z,8.30
2019-03-21T19:45:19.228Z,8.10
2019-03-21T19:47:48.659Z,8.10
2019-03-21T19:50:19.206Z,8.00
2019-03-21T19:52:48.645Z,7.90
2019-03-21T19:55:25.886Z,7.80
2019-03-21T19:57:49.683Z,7.70
2019-03-21T20:00:20.181Z,7.60
2019-03-21T20:02:49.706Z,7.50
2019-03-21T20:05:19.587Z,7.40
2019-03-21T20:07:49.233Z,7.40
2019-03-21T20:10:19.797Z,7.40
2019-03-21T20:12:49.526Z,7.30
2019-03-21T20:15:19.420Z,7.30
2019-03-21T20:17:49.030Z,7.20
2019-03-21T20:20:18.657Z,7.20
2019-03-21T20:22:48.209Z,7.20
2019-03-21T20:25:17.658Z,7.10
2019-03-21T20:27:47.490Z,7.10
2019-03-21T20:30:18.125Z,7.00
2019-03-21T20:32:47.725Z,7.00
2019-03-21T20:35:17.364Z,6.90
2019-03-21T20:37:46.919Z,6.80
2019-03-21T20:40:16.689Z,6.80
2019-03-21T20:42:46.195Z,6.80
2019-03-21T20:45:16.147Z,6.70
2019-03-21T20:47:45.598Z,6.70
2019-03-21T20:50:16.430Z,6.60
2019-03-21T20:52:45.869Z,6.50
2019-03-21T20:55:15.402Z,6.50
2019-03-21T20:57:44.857Z,6.50
2019-03-21T21:00:16.907Z,6.40
2019-03-21T21:02:46.505Z,6.30
2019-03-21T21:05:16.029Z,6.30
2019-03-21T21:07:45.446Z,6.20
2019-03-21T21:10:15.631Z,6.20
2019-03-21T21:12:45.531Z,6.10
2019-03-21T21:15:16.077Z,6.20
2019-03-21T21:17:45.984Z,6.10
2019-03-21T21:20:16.266Z,6.10
2019-03-21T21:22:46.226Z,6.10
2019-03-21T21:25:16.358Z,6.00
2019-03-21T21:27:50.654Z,6.00
2019-03-21T21:30:20.799Z,5.90
2019-03-21T21:32:50.825Z,5.90
2019-03-21T21:35:20.527Z,5.80
2019-03-21T21:37:51.897Z,5.80
2019-03-21T21:40:27.829Z,5.80
2019-03-21T21:42:57.714Z,5.80
2019-03-21T21:45:28.024Z,5.80
2019-03-21T21:47:59.603Z,5.70
2019-03-21T21:50:31.604Z,5.60
2019-03-21T21:53:04.834Z,5.70
2019-03-21T21:55:34.815Z,5.60
2019-03-21T21:58:07.036Z,5.60
2019-03-21T22:00:37.534Z,5.60
2019-03-21T22:03:07.108Z,5.60
2019-03-21T22:05:36.796Z,5.50
2019-03-21T22:08:08.389Z,5.40
2019-03-21T22:10:38.301Z,5.40
2019-03-21T22:13:13.399Z,5.30
2019-03-21T22:15:42.852Z,5.30
2019-03-21T22:18:12.542Z,5.30
2019-03-21T22:20:42.773Z,5.20
2019-03-21T22:23:12.392Z,5.20
2019-03-21T22:25:41.869Z,5.20
2019-03-21T22:28:11.243Z,5.20
2019-03-21T22:30:40.949Z,5.10
2019-03-21T22:33:10.346Z,5.10
2019-03-21T22:35:39.804Z,5.10
2019-03-21T22:38:09.237Z,5.00
2019-03-21T22:40:39.037Z,5.00
2019-03-21T22:43:08.712Z,4.90
2019-03-21T22:45:38.161Z,4.90
2019-03-21T22:48:07.536Z,4.90
2019-03-21T22:50:36.993Z,4.80
2019-03-21T22:53:06.348Z,4.80
2019-03-21T22:55:35.806Z,4.80
2019-03-21T22:58:05.281Z,4.70
2019-03-21T23:00:42.256Z,4.70
2019-03-21T23:03:12.164Z,4.70
2019-03-21T23:05:41.936Z,4.70
2019-03-21T23:08:11.533Z,4.70
2019-03-21T23:10:40.986Z,4.60
2019-03-21T23:13:10.346Z,4.60
2019-03-21T23:15:39.794Z,4.60
2019-03-21T23:18:09.312Z,4.60
2019-03-21T23:20:39.050Z,4.60
2019-03-21T23:23:08.660Z,4.50
2019-03-21T23:25:38.098Z,4.50
2019-03-21T23:28:08.396Z,4.50
2019-03-21T23:30:38.089Z,4.40
2019-03-21T23:33:07.802Z,4.40
2019-03-21T23:35:37.160Z,4.30
2019-03-21T23:38:06.676Z,4.30
2019-03-21T23:40:36.184Z,4.30
2019-03-21T23:43:06.240Z,4.30
2019-03-21T23:45:35.685Z,4.20
2019-03-21T23:48:05.124Z,4.20
2019-03-21T23:50:34.569Z,4.20
2019-03-21T23:53:04.027Z,4.20
2019-03-21T23:55:33.376Z,4.20
2019-03-21T23:58:02.824Z,4.20
